Merton, WI (53056)

1:39 PM CST on February 06, 2016 (GMT -0600)
TAMRON RIDGE | | Change Station
CLOSE
Current Station
Personal Weather Station
Location: Merton, WI
Elevation: 978 ft
Nearby Weather Stations

Elev 978 ft 43.15 °N, 88.31 °W | Updated 12 seconds ago

Overcast
Overcast
31.6 °F
Feels Like 32 °F
N
1.1
Wind Variable Wind from East
Gusts 2.5 mph

Today
High -- | Low -- °F
--% Chance of Precip.
Yesterday
High -- | Low -- °F
Precip. -- in
Pressure 30.15 in
Visibility 4.0 miles
Clouds Overcast 1300 ft
Windchill 32 °F
Dew Point 24 °F
Humidity 72%
Rainfall 0.00 in
Snow Depth Not available.
7:03 AM 5:11 PM
Waning Crescent, 4% visible
METAR KUES 061845Z 23010KT 4SM BR OVC013 M02/M04 A3015
Pressure 30.15 in
Visibility 4.0 miles
Clouds Overcast 1300 ft
Windchill 32 °F
Dew Point 24 °F
Humidity 72%
Rainfall 0.00 in
Snow Depth Not available.
7:03 AM 5:11 PM
Waning Crescent, 4% visible
METAR KUES 061845Z 23010KT 4SM BR OVC013 M02/M04 A3015

10-Day Weather Forecast

Almanac

Astronomy

Feb. 06, 2016 Rise Set
Actual Time
Civil Twilight
Nautical Twilight
Astronomical Twilight
Moon
Length of Visible Light
Length of Day
Tomorrow will be .
, % of the Moon is Illuminated

Today's Extremes

State Highs State Lows

Community

WunderPhotos

Upload Photos

1,891,037 photos uploaded!

WunderBlog® & News

Nearby

Air Quality

  Air Quality AQ Index Pollutant
Not available.

Snow Depth

Station Depth Elevation

Earthquake Activity

City Distance Mag. Time & Date
Minimum magnitude displayed is 2.5.

Coastal Water Temperatures

Place Temperature

Stations

Nearby Weather Stations

Station Location Temp. Windchill Dew Point Humidity Wind Precip. Elev Updated Type
                   

Watches & Warnings

There are currently no watches in effect.